createdAt,value
2022-11-29T00:01:56.341Z,5.01
2022-11-29T00:04:44.125Z,4.89
2022-11-29T00:07:31.698Z,4.98
2022-11-29T00:10:19.281Z,5.01
2022-11-29T00:13:06.886Z,5.02
2022-11-29T00:15:54.276Z,5.06
2022-11-29T00:18:42.252Z,5.07
2022-11-29T00:21:30.351Z,5.09
2022-11-29T00:24:18.143Z,5.00
2022-11-29T00:27:05.622Z,5.02
2022-11-29T00:29:53.060Z,5.00
2022-11-29T00:32:40.585Z,4.98
2022-11-29T00:35:28.371Z,5.02
2022-11-29T00:38:16.208Z,4.96
2022-11-29T00:41:04.147Z,4.99
2022-11-29T00:43:51.616Z,4.94
2022-11-29T00:46:39.203Z,4.99
2022-11-29T00:49:26.706Z,5.02
2022-11-29T00:52:14.304Z,4.93
2022-11-29T00:55:01.787Z,4.94
2022-11-29T00:57:49.296Z,4.97
2022-11-29T01:00:36.996Z,4.92
2022-11-29T01:03:25.391Z,4.92
2022-11-29T01:06:15.946Z,4.96
2022-11-29T01:09:04.290Z,4.89
2022-11-29T01:11:52.147Z,4.91
2022-11-29T01:14:40.037Z,4.90
2022-11-29T01:17:27.748Z,4.96
2022-11-29T01:20:16.314Z,4.86
2022-11-29T01:23:04.114Z,4.89
2022-11-29T01:25:59.765Z,4.86
2022-11-29T01:28:48.775Z,4.85
2022-11-29T01:31:36.775Z,4.83
2022-11-29T01:34:24.169Z,4.73
2022-11-29T01:37:11.529Z,4.78
2022-11-29T01:39:59.863Z,4.80
2022-11-29T01:42:47.271Z,4.72
2022-11-29T01:45:38.437Z,4.73
2022-11-29T01:48:28.994Z,4.76
2022-11-29T01:51:16.940Z,4.69
2022-11-29T01:54:05.219Z,4.73
2022-11-29T01:56:53.271Z,4.75
2022-11-29T01:59:49.912Z,4.66
2022-11-29T02:02:43.631Z,4.59
2022-11-29T02:05:33.635Z,4.58
2022-11-29T02:08:27.732Z,4.64
2022-11-29T02:11:26.918Z,4.60
2022-11-29T02:14:47.797Z,4.66
2022-11-29T02:17:48.790Z,4.66
2022-11-29T02:21:12.059Z,4.58
2022-11-29T02:24:34.321Z,4.61
2022-11-29T02:28:04.841Z,4.56
2022-11-29T02:31:07.178Z,4.64
2022-11-29T02:34:10.590Z,4.63
2022-11-29T02:37:35.628Z,4.60
2022-11-29T02:40:58.535Z,4.56
2022-11-29T02:43:59.149Z,4.54
2022-11-29T02:47:11.741Z,4.56
2022-11-29T02:50:49.826Z,4.48
2022-11-29T02:53:40.224Z,4.44
2022-11-29T02:56:59.359Z,4.46
2022-11-29T03:00:05.203Z,4.45
2022-11-29T03:03:03.525Z,4.41
2022-11-29T03:06:07.995Z,4.35
2022-11-29T03:09:10.655Z,4.40
2022-11-29T03:12:18.111Z,4.46
2022-11-29T03:15:24.215Z,4.44
2022-11-29T03:18:34.431Z,4.46
2022-11-29T03:21:33.885Z,4.39
2022-11-29T03:24:26.196Z,4.43
2022-11-29T03:27:19.549Z,4.38
2022-11-29T03:30:10.474Z,4.32
2022-11-29T03:33:12.932Z,4.30
2022-11-29T03:36:20.553Z,4.33
2022-11-29T03:39:17.590Z,4.31
2022-11-29T03:42:13.084Z,4.34
2022-11-29T03:45:09.909Z,4.37
2022-11-29T03:48:07.108Z,4.35
2022-11-29T03:50:59.865Z,4.38
2022-11-29T03:54:16.230Z,4.36
2022-11-29T03:57:03.938Z,4.40
2022-11-29T04:00:11.752Z,4.40
2022-11-29T04:03:36.471Z,4.36
2022-11-29T04:06:32.858Z,4.34
2022-11-29T04:09:26.414Z,4.33
2022-11-29T04:13:11.593Z,4.33
2022-11-29T04:16:11.093Z,4.32
2022-11-29T04:19:16.423Z,4.26
2022-11-29T04:22:04.610Z,4.21
2022-11-29T04:25:04.231Z,4.21
2022-11-29T04:28:19.772Z,4.19
2022-11-29T04:31:19.971Z,4.18
2022-11-29T04:34:37.981Z,4.18
2022-11-29T04:38:06.232Z,4.14
2022-11-29T04:41:30.198Z,4.09
2022-11-29T04:44:48.835Z,4.11
2022-11-29T04:47:44.227Z,4.03
2022-11-29T04:50:43.892Z,4.00
2022-11-29T04:53:49.591Z,4.01
2022-11-29T04:56:47.666Z,3.99
2022-11-29T04:59:53.776Z,4.05
2022-11-29T05:02:56.746Z,4.05
2022-11-29T05:05:51.358Z,4.07
2022-11-29T05:08:59.501Z,4.13
2022-11-29T05:11:46.878Z,4.16
2022-11-29T05:14:49.548Z,4.14
2022-11-29T05:17:49.939Z,4.17
2022-11-29T05:20:47.876Z,4.20
2022-11-29T05:24:03.928Z,4.20
2022-11-29T05:26:56.718Z,4.24
2022-11-29T05:30:13.360Z,4.31
2022-11-29T05:33:15.053Z,4.35
2022-11-29T05:36:11.070Z,4.36
2022-11-29T05:39:10.447Z,4.35
2022-11-29T05:42:25.376Z,4.42
2022-11-29T05:45:25.204Z,4.42
2022-11-29T05:48:24.802Z,4.44
2022-11-29T05:51:21.640Z,4.38
2022-11-29T05:54:24.762Z,4.44
2022-11-29T05:57:15.204Z,4.43
2022-11-29T06:00:05.567Z,4.36
2022-11-29T06:03:34.816Z,4.40
2022-11-29T06:06:40.536Z,4.39
2022-11-29T06:09:32.225Z,4.41
2022-11-29T06:12:22.069Z,4.41
2022-11-29T06:15:23.660Z,4.42
2022-11-29T06:18:33.199Z,4.42
2022-11-29T06:21:26.507Z,4.35
2022-11-29T06:24:39.947Z,4.42
2022-11-29T06:27:48.652Z,4.44
2022-11-29T06:30:50.976Z,4.30
2022-11-29T06:34:09.330Z,4.34
2022-11-29T06:37:19.968Z,4.39
2022-11-29T06:40:12.276Z,4.35
2022-11-29T06:43:00.170Z,4.36
2022-11-29T06:45:56.095Z,4.40
2022-11-29T06:48:51.220Z,4.41
2022-11-29T06:52:12.780Z,4.41
2022-11-29T06:55:15.963Z,4.44
2022-11-29T06:58:21.710Z,4.49
2022-11-29T07:01:19.537Z,4.41
2022-11-29T07:04:31.309Z,4.39
2022-11-29T07:07:20.598Z,4.28
2022-11-29T07:10:17.533Z,4.33
2022-11-29T07:13:05.294Z,4.32
2022-11-29T07:16:08.038Z,4.29
2022-11-29T07:19:17.574Z,4.31
2022-11-29T07:22:23.628Z,4.31
2022-11-29T07:25:34.433Z,4.30
2022-11-29T07:28:35.476Z,4.26
2022-11-29T07:31:38.456Z,4.29
2022-11-29T07:35:16.685Z,4.36
2022-11-29T07:38:27.029Z,4.41
2022-11-29T07:41:28.799Z,4.42
2022-11-29T07:44:47.057Z,4.42
2022-11-29T07:47:36.078Z,4.48
2022-11-29T07:50:25.166Z,4.52
2022-11-29T07:53:17.636Z,4.51
2022-11-29T07:56:05.603Z,4.53
2022-11-29T07:58:53.031Z,4.54
2022-11-29T08:01:40.693Z,4.59
2022-11-29T08:04:28.401Z,4.72
2022-11-29T08:07:15.996Z,4.77
2022-11-29T08:10:06.258Z,4.85
2022-11-29T08:12:53.789Z,4.85
2022-11-29T08:15:45.571Z,4.84
2022-11-29T08:18:33.869Z,4.92
2022-11-29T08:21:21.360Z,5.03
2022-11-29T08:24:09.319Z,5.03
2022-11-29T08:26:56.795Z,5.00
2022-11-29T08:29:44.205Z,5.11
2022-11-29T08:32:31.638Z,5.17
2022-11-29T08:35:21.760Z,5.19
2022-11-29T08:38:09.581Z,5.20
2022-11-29T08:41:04.748Z,5.27
2022-11-29T08:43:52.854Z,5.30
2022-11-29T08:46:58.960Z,5.32
2022-11-29T08:50:01.435Z,5.33
2022-11-29T08:53:09.011Z,5.36
2022-11-29T08:56:00.002Z,5.48
2022-11-29T08:58:47.460Z,5.54
2022-11-29T09:01:34.945Z,5.57
2022-11-29T09:04:22.395Z,5.54
2022-11-29T09:07:09.911Z,5.58
2022-11-29T09:09:57.588Z,5.54
2022-11-29T09:12:45.632Z,5.54
2022-11-29T09:15:33.239Z,5.55
2022-11-29T09:18:20.883Z,5.58
2022-11-29T09:21:10.141Z,5.50
2022-11-29T09:23:59.885Z,5.62
2022-11-29T09:26:50.474Z,5.61
2022-11-29T09:29:37.878Z,5.60
2022-11-29T09:32:25.206Z,5.65
2022-11-29T09:35:13.002Z,5.71
2022-11-29T09:38:00.527Z,5.71
2022-11-29T09:40:57.645Z,5.72
2022-11-29T09:44:04.025Z,5.72
2022-11-29T09:46:54.469Z,5.74
2022-11-29T09:49:57.871Z,5.86
2022-11-29T09:53:10.083Z,5.89
2022-11-29T09:56:09.025Z,5.94
2022-11-29T09:59:03.904Z,5.94
2022-11-29T10:02:18.379Z,5.92
2022-11-29T10:05:23.556Z,6.09
2022-11-29T10:08:25.700Z,6.04
2022-11-29T10:11:24.745Z,6.09
2022-11-29T10:14:24.222Z,6.15
2022-11-29T10:17:39.497Z,6.21
2022-11-29T10:20:30.393Z,6.13
2022-11-29T10:23:30.041Z,6.16
2022-11-29T10:26:18.294Z,6.18
2022-11-29T10:29:05.882Z,6.17
2022-11-29T10:31:57.117Z,6.25
2022-11-29T10:34:45.277Z,6.24
2022-11-29T10:37:33.116Z,6.14
2022-11-29T10:40:32.341Z,6.13
2022-11-29T10:43:20.186Z,6.25
2022-11-29T10:46:17.585Z,6.21
2022-11-29T10:49:07.387Z,6.30
2022-11-29T10:51:54.754Z,6.31
2022-11-29T10:54:44.604Z,6.31
2022-11-29T10:57:32.678Z,6.29
2022-11-29T11:00:20.412Z,6.30
2022-11-29T11:03:26.289Z,6.34
2022-11-29T11:06:44.926Z,6.51
2022-11-29T11:09:43.105Z,6.50
2022-11-29T11:12:33.568Z,6.49
2022-11-29T11:15:31.125Z,6.51
2022-11-29T11:18:24.103Z,6.58
2022-11-29T11:21:14.819Z,6.59
2022-11-29T11:24:03.272Z,6.52
2022-11-29T11:26:50.905Z,6.61
2022-11-29T11:29:42.515Z,6.70
2022-11-29T11:32:30.000Z,6.72
2022-11-29T11:35:24.235Z,6.74
2022-11-29T11:38:16.958Z,6.70
2022-11-29T11:41:16.811Z,6.63
2022-11-29T11:44:07.111Z,6.60
2022-11-29T11:47:05.464Z,6.55
2022-11-29T11:50:07.704Z,6.57
2022-11-29T11:53:17.498Z,6.49
2022-11-29T11:56:12.994Z,6.55
2022-11-29T11:59:00.835Z,6.63
2022-11-29T12:01:48.687Z,6.54
2022-11-29T12:04:38.043Z,6.45
2022-11-29T12:07:59.759Z,6.49
2022-11-29T12:10:44.932Z,6.45
2022-11-29T12:13:36.007Z,6.51
2022-11-29T12:16:31.538Z,6.54
2022-11-29T12:19:25.758Z,6.53
2022-11-29T12:22:19.879Z,6.53
2022-11-29T12:25:14.024Z,6.49
2022-11-29T12:28:01.490Z,6.53
2022-11-29T12:31:16.878Z,6.55
2022-11-29T12:34:56.129Z,6.59
2022-11-29T12:37:48.064Z,6.59
2022-11-29T12:40:54.096Z,6.61
2022-11-29T12:44:15.762Z,6.59
2022-11-29T12:47:39.765Z,6.56
2022-11-29T12:50:57.575Z,6.66
2022-11-29T12:53:54.470Z,6.59
2022-11-29T12:57:10.028Z,6.73
2022-11-29T13:00:19.051Z,6.69
2022-11-29T13:03:47.539Z,6.70
2022-11-29T13:07:26.909Z,6.72
2022-11-29T13:10:23.105Z,6.68
2022-11-29T13:14:42.146Z,6.68
2022-11-29T13:17:40.537Z,6.53
2022-11-29T13:20:49.395Z,6.52
2022-11-29T13:24:10.397Z,6.60
2022-11-29T13:26:55.732Z,6.57
2022-11-29T13:29:43.988Z,6.52
2022-11-29T13:32:45.762Z,6.50
2022-11-29T13:35:49.251Z,6.53
2022-11-29T13:39:11.217Z,6.45
2022-11-29T13:42:21.984Z,6.50
2022-11-29T13:45:32.141Z,6.51
2022-11-29T13:48:34.656Z,6.54
2022-11-29T13:51:28.900Z,6.49
2022-11-29T13:54:32.965Z,6.58
2022-11-29T13:57:21.033Z,6.47
2022-11-29T14:00:33.860Z,6.46
2022-11-29T14:03:24.814Z,6.43
2022-11-29T14:06:25.194Z,6.38
2022-11-29T14:09:19.247Z,6.38
2022-11-29T14:12:19.925Z,6.35
2022-11-29T14:15:28.577Z,6.38
2022-11-29T14:18:44.515Z,6.23
2022-11-29T14:22:07.091Z,6.23
2022-11-29T14:25:16.312Z,6.24
2022-11-29T14:28:45.954Z,6.28
2022-11-29T14:31:56.464Z,6.31
2022-11-29T14:34:50.832Z,6.32
2022-11-29T14:38:15.035Z,6.22
2022-11-29T14:41:30.027Z,6.29
2022-11-29T14:44:35.070Z,6.04
2022-11-29T14:47:38.627Z,6.19
2022-11-29T14:50:35.389Z,6.04
2022-11-29T14:53:37.869Z,6.01
2022-11-29T14:56:31.990Z,6.17
2022-11-29T14:59:44.660Z,6.19
2022-11-29T15:02:45.141Z,6.21
2022-11-29T15:05:58.138Z,6.16
2022-11-29T15:08:58.659Z,6.14
2022-11-29T15:12:06.563Z,6.02
2022-11-29T15:15:13.132Z,6.18
2022-11-29T15:18:16.841Z,6.06
2022-11-29T15:21:32.694Z,6.17
2022-11-29T15:24:28.718Z,6.12
2022-11-29T15:27:20.366Z,6.02
2022-11-29T15:30:34.605Z,6.04
2022-11-29T15:33:26.464Z,5.99
2022-11-29T15:36:23.704Z,6.06
2022-11-29T15:39:29.986Z,6.05
2022-11-29T15:42:18.219Z,6.01
2022-11-29T15:45:36.408Z,5.92
2022-11-29T15:48:33.894Z,6.02
2022-11-29T15:51:42.858Z,5.96
2022-11-29T15:54:49.385Z,5.85
2022-11-29T15:57:49.648Z,5.92
2022-11-29T16:00:42.653Z,6.03
2022-11-29T16:03:49.260Z,5.84
2022-11-29T16:07:00.566Z,6.04
2022-11-29T16:09:58.963Z,6.12
2022-11-29T16:12:57.502Z,6.11
2022-11-29T16:15:56.153Z,6.10
2022-11-29T16:18:49.656Z,6.14
2022-11-29T16:21:41.231Z,6.09
2022-11-29T16:24:42.763Z,6.12
2022-11-29T16:27:34.519Z,6.09
2022-11-29T16:30:31.920Z,6.08
2022-11-29T16:33:31.735Z,6.08
2022-11-29T16:36:30.584Z,6.03
2022-11-29T16:39:24.926Z,5.99
2022-11-29T16:42:33.776Z,5.94
2022-11-29T16:48:47.177Z,6.03
2022-11-29T16:51:46.520Z,6.09
2022-11-29T16:54:39.720Z,6.03
2022-11-29T16:57:32.868Z,5.98
2022-11-29T17:00:39.995Z,6.03
2022-11-29T17:03:34.320Z,6.00
2022-11-29T17:06:23.429Z,6.07
2022-11-29T17:09:22.834Z,6.01
2022-11-29T17:12:13.949Z,5.97
2022-11-29T17:15:01.373Z,6.02
2022-11-29T17:17:49.431Z,5.98
2022-11-29T17:20:37.248Z,6.00
2022-11-29T17:23:24.637Z,5.98
2022-11-29T17:26:13.911Z,6.00
2022-11-29T17:29:01.389Z,5.98
2022-11-29T17:31:50.687Z,5.94
2022-11-29T17:34:51.308Z,5.96
2022-11-29T17:37:42.022Z,5.84
2022-11-29T17:40:39.699Z,5.91
2022-11-29T17:43:33.584Z,5.88
2022-11-29T17:46:38.696Z,5.92
2022-11-29T17:49:29.554Z,5.87
2022-11-29T17:52:30.380Z,5.89
2022-11-29T17:55:29.379Z,6.00
2022-11-29T17:58:17.235Z,5.96
2022-11-29T18:01:09.036Z,5.98
2022-11-29T18:03:59.469Z,5.96
2022-11-29T18:06:50.296Z,5.98
2022-11-29T18:09:38.131Z,5.96
2022-11-29T18:12:25.786Z,5.95
2022-11-29T18:15:13.255Z,5.91
2022-11-29T18:18:06.590Z,5.88
2022-11-29T18:20:58.299Z,5.89
2022-11-29T18:23:56.868Z,5.90
2022-11-29T18:26:44.354Z,5.81
2022-11-29T18:29:38.912Z,5.85
2022-11-29T18:32:27.543Z,5.83
2022-11-29T18:35:15.165Z,5.83
2022-11-29T18:38:18.903Z,5.72
2022-11-29T18:41:13.864Z,5.84
2022-11-29T18:44:06.260Z,5.83
2022-11-29T18:46:53.608Z,5.78
2022-11-29T18:49:41.239Z,5.85
2022-11-29T18:53:04.646Z,5.76
2022-11-29T18:56:03.293Z,5.74
2022-11-29T18:58:58.165Z,5.81
2022-11-29T19:01:48.544Z,5.78
2022-11-29T19:04:37.548Z,5.74
2022-11-29T19:07:25.059Z,5.71
2022-11-29T19:10:12.576Z,5.75
2022-11-29T19:13:00.384Z,5.78
2022-11-29T19:15:55.094Z,5.80
2022-11-29T19:18:43.449Z,5.81
2022-11-29T19:21:34.790Z,5.79
2022-11-29T19:24:30.991Z,5.80
2022-11-29T19:27:18.409Z,5.78
2022-11-29T19:30:06.884Z,5.74
2022-11-29T19:33:02.267Z,5.73
2022-11-29T19:35:49.659Z,5.72
2022-11-29T19:38:38.389Z,5.70
2022-11-29T19:41:34.115Z,5.74
2022-11-29T19:44:26.515Z,5.74
2022-11-29T19:47:17.058Z,5.70
2022-11-29T19:50:04.961Z,5.76
2022-11-29T19:52:52.373Z,5.77
2022-11-29T19:55:43.891Z,5.73
2022-11-29T19:58:32.356Z,5.68
2022-11-29T20:01:35.948Z,5.67
2022-11-29T20:04:26.918Z,5.64
2022-11-29T20:07:14.274Z,5.69
2022-11-29T20:10:01.666Z,5.67
2022-11-29T20:12:49.298Z,5.71
2022-11-29T20:15:36.740Z,5.71
2022-11-29T20:18:24.301Z,5.80
2022-11-29T20:21:14.571Z,5.73
2022-11-29T20:24:04.893Z,5.71
2022-11-29T20:26:52.225Z,5.80
2022-11-29T20:29:39.604Z,5.81
2022-11-29T20:32:27.102Z,5.79
2022-11-29T20:35:17.209Z,5.81
2022-11-29T20:38:07.463Z,5.79
2022-11-29T20:41:02.724Z,5.80
2022-11-29T20:43:55.932Z,5.79
2022-11-29T20:46:50.698Z,5.82
2022-11-29T20:49:38.407Z,5.79
2022-11-29T20:52:32.622Z,5.78
2022-11-29T20:55:20.845Z,5.73
2022-11-29T20:58:08.675Z,5.72
2022-11-29T21:00:56.290Z,5.68
2022-11-29T21:03:44.165Z,5.69
2022-11-29T21:06:34.325Z,5.69
2022-11-29T21:09:21.704Z,5.61
2022-11-29T21:12:09.736Z,5.58
2022-11-29T21:14:58.163Z,5.62
2022-11-29T21:17:45.704Z,5.56
2022-11-29T21:20:33.588Z,5.54
2022-11-29T21:23:21.207Z,5.56
2022-11-29T21:26:15.945Z,5.57
2022-11-29T21:29:09.338Z,5.57
2022-11-29T21:31:57.193Z,5.55
2022-11-29T21:34:44.780Z,5.58
2022-11-29T21:37:32.269Z,5.60
2022-11-29T21:40:19.689Z,5.53
2022-11-29T21:43:07.051Z,5.53
2022-11-29T21:45:54.416Z,5.57
2022-11-29T21:48:42.454Z,5.54
2022-11-29T21:51:29.834Z,5.50
2022-11-29T21:54:17.678Z,5.48
2022-11-29T21:57:05.040Z,5.55
2022-11-29T21:59:52.831Z,5.54
2022-11-29T22:02:40.257Z,5.57
2022-11-29T22:05:27.779Z,5.57
2022-11-29T22:08:15.209Z,5.55
2022-11-29T22:11:34.394Z,5.52
2022-11-29T22:14:22.072Z,5.51
2022-11-29T22:17:09.617Z,5.49
2022-11-29T22:19:56.935Z,5.49
2022-11-29T22:22:45.300Z,5.52
2022-11-29T22:25:32.655Z,5.51
2022-11-29T22:28:20.090Z,5.52
2022-11-29T22:31:09.884Z,5.54
2022-11-29T22:33:57.744Z,5.52
2022-11-29T22:36:45.964Z,5.54
2022-11-29T22:39:33.414Z,5.54
2022-11-29T22:42:20.760Z,5.51
2022-11-29T22:45:08.366Z,5.49
2022-11-29T22:47:55.682Z,5.55
2022-11-29T22:50:43.023Z,5.56
2022-11-29T22:53:30.447Z,5.54
2022-11-29T22:56:18.406Z,5.56
2022-11-29T22:59:06.661Z,5.55
2022-11-29T23:01:54.189Z,5.53
2022-11-29T23:04:41.469Z,5.56
2022-11-29T23:07:28.905Z,5.61
2022-11-29T23:10:16.259Z,5.55
2022-11-29T23:13:03.698Z,5.51
2022-11-29T23:15:54.355Z,5.57
2022-11-29T23:18:42.668Z,5.54
2022-11-29T23:21:36.607Z,5.56
2022-11-29T23:24:24.046Z,5.52
2022-11-29T23:27:11.333Z,5.46
2022-11-29T23:29:58.692Z,5.53
2022-11-29T23:32:46.037Z,5.53
2022-11-29T23:35:33.766Z,5.51
2022-11-29T23:38:21.198Z,5.50
2022-11-29T23:41:09.772Z,5.48
2022-11-29T23:43:57.409Z,5.55
2022-11-29T23:46:44.766Z,5.55
2022-11-29T23:49:35.313Z,5.54
2022-11-29T23:52:22.919Z,5.51
2022-11-29T23:55:12.416Z,5.57
2022-11-29T23:58:02.692Z,5.51
